Terminal Aerodrome Forecast
Issued by NWS Cleveland, OH

Home | Current Version | Previous Version | Text Only | Print | Product List | Glossary Off
Versions: 1 2 3 4 5 6 7 8 9 10 11 12 13 14 15

741
FTUS41 KCLE 210539
TAFYNG
TAF
KYNG 210539Z 2106/2206 20010KT P6SM VCSH SCT025 OVC045
      TEMPO 2106/2108 BKN025
     FM210800 25008KT P6SM VCSH SCT015 OVC025
      TEMPO 2108/2112 BKN012
     FM211700 27014G22KT P6SM SCT025 BKN045=

USA.gov is the U.S. government's official web portal to all federal, state and local government web resources and services.